Time;durP1;ratioP1;P1;durP2;ratioP2;P2;SDS_P1;SDS_P2;PMS_P1;PMS_P2;Temp;Humidity;BMP_temperature;BMP_pressure;BME280_temperature;BME280_humidity;BME280_pressure;Samples;Min_cycle;Max_cycle;Signal;HPM_P1;HPM_P2
2022/05/15 00:01:01;;;;;;;6.93;5.60;;;13.20;1.00;;;;;;5040410;28;20467;-81
2022/05/15 00:03:30;;;;;;;6.40;5.73;;;13.10;1.00;;;;;;5065147;28;20476;-78
2022/05/15 00:05:59;;;;;;;9.10;5.57;;;13.00;1.00;;;;;;5068565;28;20590;-80
2022/05/15 00:08:28;;;;;;;11.80;6.80;;;13.00;1.00;;;;;;5071438;28;20483;-80
2022/05/15 00:10:55;;;;;;;12.70;6.10;;;12.90;1.00;;;;;;5071435;28;20475;-78
2022/05/15 00:13:23;;;;;;;12.13;5.87;;;12.90;1.00;;;;;;5070719;28;20457;-78
2022/05/15 00:15:50;;;;;;;11.53;5.90;;;12.90;1.00;;;;;;5070744;28;21300;-78
2022/05/15 00:18:20;;;;;;;10.70;5.90;;;12.80;1.00;;;;;;5072272;28;20468;-79
2022/05/15 00:20:49;;;;;;;9.53;6.13;;;12.80;1.00;;;;;;5072164;28;20539;-82
2022/05/15 00:23:18;;;;;;;10.73;6.50;;;12.70;1.00;;;;;;5069094;28;20551;-81
2022/05/15 00:25:44;;;;;;;12.90;6.67;;;12.70;1.00;;;;;;5071221;28;20439;-82
2022/05/15 00:28:13;;;;;;;11.70;5.90;;;12.60;1.00;;;;;;5071304;28;21221;-82
2022/05/15 00:30:40;;;;;;;8.40;5.20;;;12.60;1.00;;;;;;5070506;28;20539;-82
2022/05/15 00:33:07;;;;;;;10.17;5.60;;;12.60;1.00;;;;;;5073198;28;20725;-83
2022/05/15 00:35:37;;;;;;;10.03;5.60;;;12.50;1.00;;;;;;5069108;28;20456;-82
2022/05/15 00:38:07;;;;;;;8.80;5.37;;;12.50;1.00;;;;;;5068576;28;20592;-84
2022/05/15 00:40:37;;;;;;;8.63;5.80;;;12.50;1.00;;;;;;5072072;28;20539;-84
2022/05/15 00:43:04;;;;;;;9.63;5.70;;;12.50;1.00;;;;;;5068149;28;20513;-83
2022/05/15 00:45:30;;;;;;;9.17;5.50;;;12.50;1.00;;;;;;5073720;28;20427;-82
2022/05/15 00:47:58;;;;;;;8.80;5.30;;;12.40;1.00;;;;;;5071292;28;21050;-83
2022/05/15 00:50:31;;;;;;;7.40;4.50;;;12.40;1.00;;;;;;5069613;28;20549;-82
2022/05/15 00:53:05;;;;;;;11.03;4.93;;;12.40;1.00;;;;;;5067122;28;20451;-83
2022/05/15 00:55:36;;;;;;;8.00;5.30;;;12.30;1.00;;;;;;5065974;28;20463;-82
2022/05/15 00:58:09;;;;;;;9.33;4.50;;;12.30;1.00;;;;;;5068648;28;20469;-82
2022/05/15 01:00:39;;;;;;;6.10;4.47;;;12.30;1.00;;;;;;5071646;28;20590;-83
2022/05/15 01:03:10;;;;;;;7.90;3.83;;;12.30;1.00;;;;;;5070659;28;20886;-83
2022/05/15 01:05:40;;;;;;;6.77;4.00;;;12.30;1.00;;;;;;5073343;28;20477;-83
2022/05/15 01:08:10;;;;;;;7.77;4.30;;;12.20;1.00;;;;;;5070717;28;20526;-82
2022/05/15 01:10:39;;;;;;;5.73;3.50;;;12.20;1.00;;;;;;5071480;28;21873;-83
2022/05/15 01:13:06;;;;;;;6.10;3.90;;;12.20;1.00;;;;;;5068016;28;20463;-83
2022/05/15 01:15:36;;;;;;;9.13;4.57;;;12.20;1.00;;;;;;5073207;28;20518;-83
2022/05/15 01:18:03;;;;;;;6.03;4.33;;;12.20;1.00;;;;;;5070257;28;21066;-82
2022/05/15 01:20:31;;;;;;;7.30;4.30;;;12.20;1.00;;;;;;5070901;28;20517;-82
2022/05/15 01:23:00;;;;;;;8.70;4.60;;;12.10;1.00;;;;;;5070403;28;20530;-82
2022/05/15 01:25:30;;;;;;;7.63;4.23;;;12.10;1.00;;;;;;5069215;28;21216;-83
2022/05/15 01:28:02;;;;;;;6.80;4.50;;;12.10;1.00;;;;;;5069792;28;20443;-82
2022/05/15 01:30:29;;;;;;;8.07;4.57;;;12.10;1.00;;;;;;5069342;28;20548;-82
2022/05/15 01:32:56;;;;;;;11.03;5.10;;;12.00;1.00;;;;;;5070431;28;20529;-82
2022/05/15 01:35:23;;;;;;;9.50;5.70;;;12.00;1.00;;;;;;5068384;28;20455;-82
2022/05/15 01:37:50;;;;;;;7.70;5.10;;;12.00;1.00;;;;;;5069779;28;20447;-82
2022/05/15 01:40:19;;;;;;;7.70;4.90;;;12.00;1.00;;;;;;5069321;28;20483;-82
2022/05/15 01:42:45;;;;;;;8.23;4.60;;;12.00;1.00;;;;;;5072115;28;20510;-83
2022/05/15 01:45:14;;;;;;;7.83;4.93;;;12.00;1.00;;;;;;5068513;28;20443;-82
2022/05/15 01:47:40;;;;;;;8.00;4.87;;;11.90;1.00;;;;;;5067087;28;20517;-81
2022/05/15 01:50:09;;;;;;;8.97;4.60;;;11.90;1.00;;;;;;5071976;28;20608;-83
2022/05/15 01:52:37;;;;;;;7.80;5.33;;;12.00;1.00;;;;;;5065110;28;20530;-82
2022/05/15 01:55:04;;;;;;;8.00;5.20;;;11.90;1.00;;;;;;5068860;28;20504;-82
2022/05/15 01:57:33;;;;;;;8.53;5.10;;;11.80;1.00;;;;;;5069890;28;20539;-82
2022/05/15 02:00:00;;;;;;;8.00;5.43;;;11.80;1.00;;;;;;5068808;28;20599;-81
2022/05/15 02:02:27;;;;;;;8.40;5.13;;;11.80;1.00;;;;;;5070246;28;20533;-81
2022/05/15 02:04:54;;;;;;;10.33;5.80;;;11.80;1.00;;;;;;5069907;28;20451;-81
2022/05/15 02:07:20;;;;;;;7.53;6.00;;;11.80;1.00;;;;;;5065914;28;20925;-81
2022/05/15 02:09:47;;;;;;;9.40;6.27;;;11.70;1.00;;;;;;5071299;28;20463;-81
2022/05/15 02:12:14;;;;;;;10.60;6.03;;;11.60;1.00;;;;;;5070472;28;21082;-82
2022/05/15 02:14:42;;;;;;;8.00;6.50;;;11.60;1.00;;;;;;5069028;28;20448;-82
2022/05/15 02:17:09;;;;;;;9.67;5.73;;;11.60;1.00;;;;;;5070267;28;20466;-83
2022/05/15 02:19:36;;;;;;;11.50;6.10;;;11.50;1.00;;;;;;5068277;28;20470;-81
2022/05/15 02:22:03;;;;;;;12.17;6.53;;;11.50;1.00;;;;;;5067293;28;21375;-82
2022/05/15 02:24:31;;;;;;;13.47;6.90;;;11.50;1.00;;;;;;5069811;28;20454;-83
2022/05/15 02:26:58;;;;;;;9.47;6.57;;;11.50;1.00;;;;;;5073338;28;20455;-82
2022/05/15 02:29:24;;;;;;;8.70;6.10;;;11.40;1.00;;;;;;5073106;28;20983;-82
2022/05/15 02:31:52;;;;;;;7.70;5.00;;;11.40;1.00;;;;;;5072578;28;21141;-82
2022/05/15 02:34:19;;;;;;;7.43;4.80;;;11.40;1.00;;;;;;5074424;28;20463;-83
2022/05/15 02:36:46;;;;;;;8.30;5.27;;;11.40;1.00;;;;;;5070487;28;20447;-82
2022/05/15 02:39:12;;;;;;;10.00;5.67;;;11.50;1.00;;;;;;5074220;28;21041;-82
2022/05/15 02:41:39;;;;;;;7.80;5.20;;;11.50;1.00;;;;;;5074386;28;20442;-80
2022/05/15 02:44:06;;;;;;;7.57;5.60;;;11.50;1.00;;;;;;5052382;28;20486;-80
2022/05/15 02:46:33;;;;;;;9.33;5.53;;;11.50;1.00;;;;;;5072190;28;20894;-79
2022/05/15 02:51:45;;;;;;;6.47;4.27;;;11.50;1.00;;;;;;5069872;28;20451;-81
2022/05/15 02:54:12;;;;;;;9.87;5.00;;;11.50;1.00;;;;;;5073632;28;20835;-81
2022/05/15 02:56:39;;;;;;;7.40;5.10;;;11.40;1.00;;;;;;5070939;28;20465;-82
2022/05/15 02:59:06;;;;;;;8.73;4.70;;;11.40;1.00;;;;;;5072029;28;20467;-81
2022/05/15 03:01:33;;;;;;;11.17;4.87;;;11.40;1.00;;;;;;5072257;28;20533;-82
2022/05/15 03:04:03;;;;;;;7.50;4.30;;;11.40;1.00;;;;;;5072753;28;20454;-83
2022/05/15 03:06:30;;;;;;;8.93;4.50;;;11.40;1.00;;;;;;5070138;28;20411;-83
2022/05/15 03:08:57;;;;;;;10.47;4.40;;;11.40;1.00;;;;;;5073516;28;20431;-84
2022/05/15 03:11:24;;;;;;;6.70;3.90;;;11.40;1.00;;;;;;5069591;28;20506;-83
2022/05/15 03:13:50;;;;;;;6.10;4.00;;;11.40;1.00;;;;;;5073677;28;20441;-83
2022/05/15 03:16:18;;;;;;;6.87;3.60;;;11.30;1.00;;;;;;5071393;28;20482;-82
2022/05/15 03:18:51;;;;;;;6.03;3.40;;;11.40;1.00;;;;;;5072698;28;20460;-82
2022/05/15 03:21:30;;;;;;;14.60;4.87;;;11.30;1.00;;;;;;5072931;28;20494;-83
2022/05/15 03:23:58;;;;;;;9.93;3.80;;;11.40;1.00;;;;;;5072749;28;20495;-82
2022/05/15 03:26:26;;;;;;;10.00;4.30;;;11.40;1.00;;;;;;5073038;28;20471;-82
2022/05/15 03:28:53;;;;;;;5.60;3.63;;;11.40;1.00;;;;;;5071543;28;21725;-83
2022/05/15 03:31:20;;;;;;;7.60;4.07;;;11.40;1.00;;;;;;5072009;28;20467;-80
2022/05/15 03:33:48;;;;;;;9.67;4.20;;;11.40;1.00;;;;;;5072169;28;20957;-82
2022/05/15 03:36:15;;;;;;;6.43;3.90;;;11.40;1.00;;;;;;5071921;28;20546;-81
2022/05/15 03:38:45;;;;;;;6.27;3.50;;;11.50;1.00;;;;;;5073398;28;20498;-83
2022/05/15 03:41:13;;;;;;;7.20;3.47;;;11.50;1.00;;;;;;5071879;28;20961;-81
2022/05/15 03:43:40;;;;;;;9.43;4.03;;;11.50;1.00;;;;;;5072376;28;21814;-83
2022/05/15 03:46:08;;;;;;;7.70;3.43;;;11.50;1.00;;;;;;5070801;28;20528;-82
2022/05/15 03:48:35;;;;;;;7.33;3.80;;;11.40;1.00;;;;;;5067108;28;20649;-82
2022/05/15 03:51:02;;;;;;;8.00;3.83;;;11.50;1.00;;;;;;5072099;28;20533;-82
2022/05/15 03:53:30;;;;;;;10.20;5.03;;;11.50;1.00;;;;;;5069886;28;21064;-83
2022/05/15 03:55:59;;;;;;;6.43;3.47;;;11.50;1.00;;;;;;5070699;28;20470;-82
2022/05/15 03:58:29;;;;;;;8.90;3.80;;;11.50;1.00;;;;;;5069975;28;20553;-81
2022/05/15 04:00:55;;;;;;;6.17;3.80;;;11.50;1.00;;;;;;5069662;28;20547;-82
2022/05/15 04:03:22;;;;;;;6.13;3.77;;;11.50;1.00;;;;;;5054321;28;20454;-80
2022/05/15 04:05:50;;;;;;;7.27;4.20;;;11.50;1.00;;;;;;5069745;28;20422;-83
2022/05/15 04:08:17;;;;;;;8.10;3.50;;;11.50;1.00;;;;;;5072271;28;20451;-81
2022/05/15 04:10:44;;;;;;;10.10;3.87;;;11.60;1.00;;;;;;5070399;28;20541;-83
2022/05/15 04:13:12;;;;;;;6.73;4.13;;;11.60;1.00;;;;;;5070273;28;20505;-81
2022/05/15 04:15:40;;;;;;;5.00;3.83;;;11.70;1.00;;;;;;5069552;28;20450;-83
2022/05/15 04:18:09;;;;;;;6.83;4.00;;;11.80;1.00;;;;;;5070014;28;20523;-83
2022/05/15 04:20:36;;;;;;;6.37;3.63;;;11.80;1.00;;;;;;5069545;28;20572;-82
2022/05/15 04:23:03;;;;;;;9.50;3.67;;;11.90;1.00;;;;;;5072049;28;20431;-80
2022/05/15 04:25:30;;;;;;;6.30;3.47;;;11.90;1.00;;;;;;5070095;28;20521;-82
2022/05/15 04:27:57;;;;;;;6.77;4.40;;;12.00;1.00;;;;;;5071685;28;21209;-81
2022/05/15 04:30:27;;;;;;;7.33;3.93;;;12.00;1.00;;;;;;5072181;28;20463;-81
2022/05/15 04:32:53;;;;;;;4.80;3.33;;;12.10;1.00;;;;;;5072272;28;20446;-80
2022/05/15 04:35:21;;;;;;;7.10;3.13;;;12.10;1.00;;;;;;5068471;28;20564;-80
2022/05/15 04:37:51;;;;;;;8.10;3.80;;;12.10;1.00;;;;;;5070200;28;20463;-80
2022/05/15 04:40:19;;;;;;;7.27;3.43;;;12.20;1.00;;;;;;5068132;28;20463;-81
2022/05/15 04:42:45;;;;;;;7.83;3.57;;;12.20;1.00;;;;;;5071076;28;21137;-81
2022/05/15 04:45:12;;;;;;;6.30;2.93;;;12.20;1.00;;;;;;5075464;28;20430;-82
2022/05/15 04:47:43;;;;;;;4.13;2.43;;;12.20;1.00;;;;;;5071701;28;20420;-83
2022/05/15 04:50:11;;;;;;;5.57;2.83;;;12.30;1.00;;;;;;5067674;28;20412;-82
2022/05/15 04:52:38;;;;;;;6.83;3.07;;;12.40;1.00;;;;;;5068562;28;20820;-81
2022/05/15 04:55:05;;;;;;;6.93;2.70;;;12.40;1.00;;;;;;5071474;28;20506;-81
2022/05/15 04:57:33;;;;;;;5.57;3.00;;;12.50;1.00;;;;;;5071390;28;20909;-81
2022/05/15 04:59:59;;;;;;;4.60;2.33;;;12.50;1.00;;;;;;5070777;28;20475;-82
2022/05/15 05:02:26;;;;;;;4.70;2.60;;;12.50;1.00;;;;;;5069834;28;20493;-81
2022/05/15 05:04:55;;;;;;;5.53;2.47;;;12.60;1.00;;;;;;5070372;28;20447;-81
2022/05/15 05:07:22;;;;;;;7.23;2.93;;;12.60;1.00;;;;;;5070977;28;20443;-82
2022/05/15 05:09:49;;;;;;;5.17;3.10;;;12.70;1.00;;;;;;5072967;28;20494;-81
2022/05/15 05:12:16;;;;;;;5.63;2.80;;;12.70;1.00;;;;;;5072340;28;20451;-83
2022/05/15 05:14:44;;;;;;;3.50;2.20;;;12.80;1.00;;;;;;5054743;28;20588;-84
2022/05/15 05:17:11;;;;;;;4.73;2.80;;;12.80;1.00;;;;;;5070609;28;20440;-80
2022/05/15 05:19:38;;;;;;;5.90;2.27;;;12.90;1.00;;;;;;5067025;28;20477;-83
2022/05/15 05:22:06;;;;;;;7.50;3.20;;;12.90;1.00;;;;;;5072349;28;20434;-81
2022/05/15 05:24:33;;;;;;;6.53;3.33;;;13.00;1.00;;;;;;5071849;28;21208;-83
2022/05/15 05:27:00;;;;;;;7.80;3.00;;;13.10;1.00;;;;;;5072610;28;20450;-82
2022/05/15 05:29:27;;;;;;;6.03;3.30;;;13.20;1.00;;;;;;5071340;28;20846;-82
2022/05/15 05:31:55;;;;;;;4.47;2.07;;;13.20;1.00;;;;;;5070834;28;20447;-79
2022/05/15 05:34:22;;;;;;;4.10;2.07;;;13.30;1.00;;;;;;5065177;28;20463;-79
2022/05/15 05:36:53;;;;;;;7.57;2.53;;;13.40;1.00;;;;;;5071992;28;20460;-77
2022/05/15 05:39:21;;;;;;;4.47;1.77;;;13.50;1.00;;;;;;5067375;28;20457;-81
2022/05/15 05:41:48;;;;;;;6.30;2.70;;;13.60;1.00;;;;;;5069029;28;20561;-79
2022/05/15 05:44:15;;;;;;;4.87;2.07;;;13.70;1.00;;;;;;5072019;28;20932;-80
2022/05/15 05:46:41;;;;;;;7.67;2.73;;;13.80;1.00;;;;;;5074126;28;20542;-78
2022/05/15 05:49:08;;;;;;;8.37;3.27;;;13.90;1.00;;;;;;5070319;28;20627;-79
2022/05/15 05:51:35;;;;;;;7.03;2.70;;;14.00;1.00;;;;;;5072419;28;20452;-77
2022/05/15 05:54:02;;;;;;;4.00;2.33;;;14.10;1.00;;;;;;5070931;28;20452;-81
2022/05/15 05:56:32;;;;;;;7.63;2.77;;;14.10;1.00;;;;;;5068895;28;20451;-79
2022/05/15 05:59:00;;;;;;;7.33;2.33;;;14.20;1.00;;;;;;5067996;28;20436;-78
2022/05/15 06:01:27;;;;;;;5.73;2.37;;;14.20;1.00;;;;;;5065607;28;20469;-79
2022/05/15 06:06:38;;;;;;;4.10;1.90;;;14.40;1.00;;;;;;5071809;28;21319;-81
2022/05/15 06:09:05;;;;;;;6.27;2.57;;;14.60;1.00;;;;;;5071875;28;20549;-82
2022/05/15 06:11:33;;;;;;;7.37;2.37;;;14.60;1.00;;;;;;5071421;28;20422;-82
2022/05/15 06:14:00;;;;;;;5.70;2.33;;;14.60;1.00;;;;;;5072826;28;20541;-81
2022/05/15 06:16:26;;;;;;;5.70;2.57;;;14.70;1.00;;;;;;5070686;28;20465;-81
2022/05/15 06:18:53;;;;;;;3.97;2.03;;;14.80;1.00;;;;;;5068779;28;20538;-80
2022/05/15 06:21:20;;;;;;;4.60;2.00;;;14.80;1.00;;;;;;5071760;28;20526;-81
2022/05/15 06:23:47;;;;;;;5.77;2.40;;;14.80;1.00;;;;;;5068156;28;20877;-81
2022/05/15 06:26:13;;;;;;;7.23;3.20;;;14.80;1.00;;;;;;5071793;28;20527;-81
2022/05/15 06:28:41;;;;;;;7.03;2.70;;;14.90;1.00;;;;;;5070227;28;20473;-82
2022/05/15 06:31:09;;;;;;;4.77;2.00;;;14.90;1.00;;;;;;5071458;28;20488;-82
2022/05/15 06:33:35;;;;;;;5.20;2.73;;;14.90;1.00;;;;;;5072690;28;20580;-81
2022/05/15 06:36:02;;;;;;;4.80;1.90;;;14.90;1.00;;;;;;5071912;28;20466;-80
2022/05/15 06:38:29;;;;;;;5.73;2.73;;;15.00;1.00;;;;;;5073403;28;20559;-81
2022/05/15 06:40:56;;;;;;;4.50;2.70;;;15.10;1.00;;;;;;5072583;28;20456;-82
2022/05/15 06:43:23;;;;;;;4.83;2.63;;;15.10;1.00;;;;;;5073508;28;20477;-83
2022/05/15 06:45:52;;;;;;;3.93;2.27;;;15.10;1.00;;;;;;5067936;28;20411;-81
2022/05/15 06:48:19;;;;;;;5.13;2.63;;;15.10;1.00;;;;;;5071129;28;20634;-82
2022/05/15 06:50:49;;;;;;;5.07;2.50;;;15.10;1.00;;;;;;5072152;28;21696;-82
2022/05/15 06:53:16;;;;;;;5.67;2.77;;;15.20;1.00;;;;;;5067716;28;20454;-81
2022/05/15 06:58:23;;;;;;;6.00;2.13;;;15.10;1.00;;;;;;5068456;28;20564;-82
2022/05/15 07:00:53;;;;;;;6.60;2.40;;;15.20;1.00;;;;;;5069647;28;20419;-82
2022/05/15 07:03:21;;;;;;;8.60;4.13;;;15.30;1.00;;;;;;5067514;28;20457;-81
2022/05/15 07:05:49;;;;;;;5.30;2.30;;;15.30;1.00;;;;;;5072886;28;20516;-82
2022/05/15 07:08:16;;;;;;;5.63;2.10;;;15.40;1.00;;;;;;5069784;28;20966;-82
2022/05/15 07:10:43;;;;;;;5.23;2.60;;;15.50;1.00;;;;;;5070388;28;20423;-82
2022/05/15 07:13:11;;;;;;;4.80;1.80;;;15.60;1.00;;;;;;5071816;28;20418;-82
2022/05/15 07:15:38;;;;;;;13.27;8.47;;;15.60;1.00;;;;;;5078105;28;20478;-81
2022/05/15 07:18:07;;;;;;;7.03;2.57;;;15.60;1.00;;;;;;5075538;28;20472;-80
2022/05/15 07:20:34;;;;;;;4.10;2.30;;;15.60;1.00;;;;;;5077237;28;20454;-84
2022/05/15 07:23:02;;;;;;;4.43;2.20;;;15.60;1.00;;;;;;5072130;28;20924;-81
2022/05/15 07:25:30;;;;;;;5.73;2.07;;;15.70;1.00;;;;;;5075517;28;20466;-82
2022/05/15 07:27:59;;;;;;;4.50;2.30;;;15.70;1.00;;;;;;5071319;28;20482;-80
2022/05/15 07:30:26;;;;;;;5.20;1.80;;;15.80;1.00;;;;;;5074806;28;20500;-83
2022/05/15 07:32:52;;;;;;;4.73;2.10;;;16.00;1.00;;;;;;5077466;28;20463;-80
2022/05/15 07:35:21;;;;;;;9.20;2.50;;;16.20;1.00;;;;;;5069652;28;20911;-83
2022/05/15 07:37:47;;;;;;;6.93;2.33;;;16.40;1.00;;;;;;5075333;28;20553;-81
2022/05/15 07:40:14;;;;;;;6.53;2.50;;;16.50;1.00;;;;;;5075321;28;20426;-81
2022/05/15 07:42:41;;;;;;;6.27;2.50;;;16.70;1.00;;;;;;5077015;28;20447;-81
2022/05/15 07:45:12;;;;;;;7.80;2.07;;;16.70;1.00;;;;;;5075357;28;20463;-80
2022/05/15 07:47:39;;;;;;;5.83;2.40;;;16.80;1.00;;;;;;5071315;28;20552;-82
2022/05/15 07:50:09;;;;;;;5.07;2.00;;;16.90;1.00;;;;;;5070001;28;20555;-81
2022/05/15 07:52:38;;;;;;;4.67;1.80;;;16.90;1.00;;;;;;5068126;28;20906;-79
2022/05/15 07:55:06;;;;;;;5.33;2.23;;;17.10;1.00;;;;;;5072110;28;20481;-81
2022/05/15 07:57:35;;;;;;;5.20;2.60;;;17.20;1.00;;;;;;5073361;28;20461;-82
2022/05/15 08:00:03;;;;;;;6.30;2.23;;;17.30;1.00;;;;;;5072369;28;20443;-81
2022/05/15 08:02:30;;;;;;;5.90;1.87;;;17.40;1.00;;;;;;5069509;28;20443;-82
2022/05/15 08:08:01;;;;;;;6.43;2.40;;;17.60;1.00;;;;;;5069741;28;21303;-79
2022/05/15 08:10:28;;;;;;;6.67;1.83;;;17.90;1.00;;;;;;5067865;28;20537;-80
2022/05/15 08:12:55;;;;;;;5.30;2.20;;;18.00;1.00;;;;;;5071661;28;20471;-83
2022/05/15 08:15:22;;;;;;;5.90;1.90;;;17.90;1.00;;;;;;5073103;28;20561;-79
2022/05/15 08:17:49;;;;;;;5.20;2.13;;;18.00;1.00;;;;;;5074541;28;20468;-80
2022/05/15 08:25:47;;;;;;;5.27;1.73;;;18.20;1.00;;;;;;5070635;28;20948;-81
2022/05/15 08:28:15;;;;;;;6.10;2.80;;;18.20;1.00;;;;;;5072189;28;20464;-83
2022/05/15 08:30:42;;;;;;;4.80;1.70;;;18.30;1.00;;;;;;5070269;28;20459;-83
2022/05/15 08:33:11;;;;;;;5.57;2.10;;;18.40;1.00;;;;;;5069387;28;21007;-84
2022/05/15 08:35:38;;;;;;;4.30;1.80;;;18.40;1.00;;;;;;5058065;28;21218;-83
2022/05/15 08:38:09;;;;;;;5.67;2.10;;;18.40;1.00;;;;;;5071557;28;20468;-83
2022/05/15 08:40:47;;;;;;;6.90;3.17;;;18.50;1.00;;;;;;5070882;28;20510;-83
2022/05/15 08:43:13;;;;;;;6.27;2.00;;;18.70;1.00;;;;;;5071156;28;20562;-83
2022/05/15 08:45:58;;;;;;;6.00;1.87;;;18.80;1.00;;;;;;5070980;28;20435;-83
2022/05/15 08:48:26;;;;;;;6.73;1.70;;;18.80;1.00;;;;;;5074461;28;20467;-84
2022/05/15 08:50:55;;;;;;;5.47;1.93;;;18.90;1.00;;;;;;5073398;28;20443;-83
2022/05/15 08:53:30;;;;;;;5.07;1.20;;;18.90;1.00;;;;;;5074367;28;20478;-83
2022/05/15 08:56:00;;;;;;;7.13;2.50;;;18.90;1.00;;;;;;5071336;28;20459;-83
2022/05/15 08:58:35;;;;;;;5.27;1.33;;;19.10;1.00;;;;;;5070933;28;20562;-82
2022/05/15 09:01:05;;;;;;;5.27;1.30;;;19.40;1.00;;;;;;5070768;28;21405;-83
2022/05/15 09:03:38;;;;;;;6.43;1.70;;;19.40;1.00;;;;;;5071669;28;20474;-83
2022/05/15 09:06:09;;;;;;;6.00;1.43;;;19.30;1.00;;;;;;5073228;28;22074;-82
2022/05/15 09:09:07;;;;;;;7.43;1.80;;;19.30;1.00;;;;;;5070971;28;20990;-85
2022/05/15 09:11:47;;;;;;;4.67;1.53;;;19.30;1.00;;;;;;5066628;28;20435;-85
2022/05/15 09:14:20;;;;;;;4.90;1.80;;;19.60;1.00;;;;;;5067098;28;20491;-85
2022/05/15 09:16:54;;;;;;;10.27;4.83;;;19.80;1.00;;;;;;5073562;28;20549;-87
2022/05/15 09:19:22;;;;;;;5.83;1.23;;;20.00;1.00;;;;;;5072050;28;20474;-86
2022/05/15 09:21:53;;;;;;;5.77;1.47;;;20.30;1.00;;;;;;5071832;28;20474;-83
2022/05/15 09:24:30;;;;;;;5.50;1.60;;;20.60;1.00;;;;;;5072988;28;20463;-85
2022/05/15 09:27:12;;;;;;;7.10;1.50;;;21.50;1.00;;;;;;5073737;28;20459;-83
2022/05/15 09:29:39;;;;;;;6.30;1.40;;;22.60;1.00;;;;;;5072085;28;20566;-83
2022/05/15 09:32:15;;;;;;;7.90;1.60;;;24.10;1.00;;;;;;5067231;28;20471;-84
2022/05/15 09:34:44;;;;;;;6.70;1.53;;;25.70;1.00;;;;;;5070703;28;20448;-86
2022/05/15 09:40:09;;;;;;;5.27;1.40;;;27.90;1.00;;;;;;5068744;28;20539;-84
2022/05/15 09:45:25;;;;;;;5.97;1.13;;;29.20;1.00;;;;;;5078118;28;20959;-82
2022/05/15 09:48:04;;;;;;;6.83;2.07;;;29.70;1.00;;;;;;5074188;28;21012;-83
2022/05/15 09:50:44;;;;;;;11.80;7.33;;;29.40;1.00;;;;;;5081009;28;20533;-83
2022/05/15 09:53:23;;;;;;;5.27;1.20;;;28.80;1.00;;;;;;5074006;28;20470;-83
2022/05/15 09:55:59;;;;;;;5.90;2.10;;;28.70;1.00;;;;;;5072451;28;20439;-84
2022/05/15 09:58:27;;;;;;;5.30;1.00;;;28.90;1.00;;;;;;5075960;28;20867;-83
2022/05/15 10:01:15;;;;;;;7.00;1.90;;;29.20;1.00;;;;;;5078911;28;21062;-85
2022/05/15 10:03:42;;;;;;;9.53;2.47;;;29.80;1.00;;;;;;5066727;28;20471;-85
2022/05/15 10:06:19;;;;;;;7.30;1.60;;;29.90;1.00;;;;;;5075621;28;20443;-84
2022/05/15 10:09:20;;;;;;;5.90;1.53;;;30.30;1.00;;;;;;5052926;28;20454;-82
2022/05/15 10:11:52;;;;;;;5.90;1.43;;;30.50;1.00;;;;;;5068332;28;21379;-85
2022/05/15 10:14:31;;;;;;;6.40;1.50;;;31.20;1.00;;;;;;5057483;28;20583;-82
2022/05/15 10:17:00;;;;;;;7.10;1.60;;;31.50;1.00;;;;;;5078091;28;20789;-82
2022/05/15 10:19:35;;;;;;;6.37;2.03;;;31.80;1.00;;;;;;5071972;28;20459;-84
2022/05/15 10:22:14;;;;;;;6.30;1.93;;;32.40;1.00;;;;;;5073012;28;20562;-85
2022/05/15 10:24:45;;;;;;;7.73;1.73;;;32.50;1.00;;;;;;5055818;28;21264;-82
2022/05/15 10:27:22;;;;;;;5.50;1.10;;;32.80;1.00;;;;;;5071029;28;20431;-83
2022/05/15 10:29:54;;;;;;;6.70;1.33;;;32.70;1.00;;;;;;5070795;28;20464;-82
2022/05/15 10:32:27;;;;;;;6.43;1.30;;;32.80;1.00;;;;;;5069601;28;20494;-83
2022/05/15 10:34:56;;;;;;;8.87;3.17;;;32.60;1.00;;;;;;5074884;28;20451;-82
2022/05/15 10:37:51;;;;;;;6.60;1.90;;;32.70;1.00;;;;;;5069062;28;20640;-82
2022/05/15 10:40:32;;;;;;;6.03;1.20;;;33.00;1.00;;;;;;5069640;28;20413;-82
2022/05/15 10:43:21;;;;;;;5.00;1.00;;;33.10;1.00;;;;;;5074676;28;20494;-83
2022/05/15 10:45:54;;;;;;;7.03;1.70;;;33.90;1.00;;;;;;5071405;28;20933;-83
2022/05/15 10:48:45;;;;;;;6.60;1.67;;;34.40;1.00;;;;;;5072971;28;20451;-82
2022/05/15 10:51:19;;;;;;;5.00;0.70;;;34.00;1.00;;;;;;5088774;28;20447;-81
2022/05/15 10:57:24;;;;;;;6.23;1.50;;;32.60;1.00;;;;;;5077288;28;20418;-83
2022/05/15 11:00:00;;;;;;;6.20;1.30;;;33.20;1.00;;;;;;5079469;28;20459;-87
2022/05/15 11:03:04;;;;;;;6.90;1.33;;;33.50;1.00;;;;;;5080211;28;20962;-85
2022/05/15 11:05:34;;;;;;;5.70;1.10;;;33.30;1.00;;;;;;5077958;28;20540;-84
2022/05/15 11:08:24;;;;;;;6.73;1.60;;;33.30;1.00;;;;;;5081816;28;20426;-80
2022/05/15 11:11:27;;;;;;;5.67;1.10;;;33.40;1.00;;;;;;5087256;28;20613;-86
2022/05/15 11:13:57;;;;;;;6.93;1.40;;;33.70;1.00;;;;;;5085084;28;20591;-86
2022/05/15 11:16:44;;;;;;;6.50;1.33;;;34.60;1.00;;;;;;5084742;28;20442;-83
2022/05/15 11:19:30;;;;;;;7.70;1.33;;;34.90;1.00;;;;;;5086255;28;20451;-84
2022/05/15 11:22:25;;;;;;;6.10;1.63;;;34.50;1.00;;;;;;5091830;28;20459;-86
2022/05/15 11:25:05;;;;;;;5.80;1.10;;;34.90;1.00;;;;;;5081463;28;20431;-83
2022/05/15 11:27:45;;;;;;;6.23;1.40;;;35.00;1.00;;;;;;5078444;28;20483;-86
2022/05/15 11:30:25;;;;;;;5.67;1.40;;;35.60;1.00;;;;;;5081991;28;20453;-83
2022/05/15 11:33:08;;;;;;;6.33;1.20;;;35.70;1.00;;;;;;5086826;28;20454;-83
2022/05/15 11:35:42;;;;;;;7.10;1.20;;;36.30;1.00;;;;;;5081463;28;20413;-83
2022/05/15 11:38:28;;;;;;;5.67;1.63;;;36.60;1.00;;;;;;5087480;28;20479;-83
2022/05/15 11:40:58;;;;;;;6.30;1.27;;;37.00;1.00;;;;;;5088781;28;20483;-83
2022/05/15 11:44:09;;;;;;;7.73;1.90;;;37.70;1.00;;;;;;5087388;28;21364;-83
2022/05/15 11:47:05;;;;;;;6.10;1.10;;;38.20;1.00;;;;;;5074848;28;20422;-84
2022/05/15 11:49:44;;;;;;;6.27;1.50;;;38.00;1.00;;;;;;5062808;28;20427;-86
2022/05/15 11:52:35;;;;;;;7.07;1.37;;;38.20;1.00;;;;;;5081226;28;20412;-85
2022/05/15 11:55:38;;;;;;;5.73;1.30;;;38.20;1.00;;;;;;5084348;28;20427;-85
2022/05/15 11:58:37;;;;;;;7.90;1.57;;;37.60;1.00;;;;;;5080751;28;20470;-83
2022/05/15 12:01:39;;;;;;;5.90;1.40;;;36.80;1.00;;;;;;5068033;28;20525;-82
2022/05/15 12:04:08;;;;;;;6.00;1.47;;;36.90;1.00;;;;;;5079323;28;20446;-83
2022/05/15 12:07:15;;;;;;;6.30;1.30;;;37.60;1.00;;;;;;5076002;28;20459;-84
2022/05/15 12:10:03;;;;;;;5.90;1.20;;;38.30;1.00;;;;;;5081538;28;20450;-88
2022/05/15 12:12:46;;;;;;;6.27;1.50;;;38.20;1.00;;;;;;5077492;28;20510;-83
2022/05/15 12:15:38;;;;;;;5.53;1.30;;;38.20;1.00;;;;;;5061654;28;20427;-83
2022/05/15 12:18:23;;;;;;;6.17;1.43;;;38.10;1.00;;;;;;5082263;28;20443;-83
2022/05/15 12:20:57;;;;;;;5.43;1.20;;;38.30;1.00;;;;;;5077230;28;20451;-83
2022/05/15 12:23:37;;;;;;;8.47;1.37;;;38.30;1.00;;;;;;5064557;28;20431;-84
2022/05/15 12:26:25;;;;;;;5.50;1.10;;;37.90;1.00;;;;;;5085128;28;21222;-85
2022/05/15 12:29:08;;;;;;;6.20;1.20;;;37.90;1.00;;;;;;5086288;28;20403;-86
2022/05/15 12:31:45;;;;;;;5.73;1.37;;;38.00;1.00;;;;;;5085525;28;20478;-83
2022/05/15 12:34:25;;;;;;;6.20;1.60;;;38.30;1.00;;;;;;5085093;28;20439;-84
2022/05/15 12:37:04;;;;;;;6.43;1.90;;;38.50;1.00;;;;;;5086806;28;20423;-81
2022/05/15 12:39:38;;;;;;;6.70;1.03;;;38.70;1.00;;;;;;5065491;28;20419;-86
2022/05/15 12:42:16;;;;;;;6.90;1.60;;;38.60;1.00;;;;;;5084798;28;20470;-84
2022/05/15 12:45:04;;;;;;;6.97;1.93;;;37.90;1.00;;;;;;5065968;28;20436;-86
2022/05/15 12:47:36;;;;;;;7.20;1.07;;;38.10;1.00;;;;;;5083694;28;20453;-83
2022/05/15 12:50:20;;;;;;;6.00;1.40;;;38.20;1.00;;;;;;5085030;28;20409;-84
2022/05/15 12:52:57;;;;;;;7.30;1.30;;;38.20;1.00;;;;;;5081300;28;20471;-83
2022/05/15 12:55:34;;;;;;;5.60;1.40;;;38.60;1.00;;;;;;5079631;28;20455;-85
2022/05/15 12:58:28;;;;;;;5.83;1.37;;;38.70;1.00;;;;;;5084662;28;20434;-85
2022/05/15 13:00:56;;;;;;;7.20;1.83;;;38.40;1.00;;;;;;5084550;28;20539;-84
2022/05/15 13:03:28;;;;;;;6.37;1.53;;;38.30;1.00;;;;;;5083927;28;20449;-83
2022/05/15 13:05:59;;;;;;;9.10;2.50;;;38.30;1.00;;;;;;5081044;28;20420;-82
2022/05/15 13:08:26;;;;;;;8.33;2.30;;;38.10;1.00;;;;;;5084926;28;20447;-86
2022/05/15 13:10:58;;;;;;;6.77;2.43;;;38.60;1.00;;;;;;5079173;28;20504;-86
2022/05/15 13:13:37;;;;;;;6.43;1.80;;;38.90;1.00;;;;;;5087540;28;20411;-82
2022/05/15 13:16:15;;;;;;;6.90;2.50;;;38.70;1.00;;;;;;5080378;28;20467;-82
2022/05/15 13:19:01;;;;;;;6.40;1.90;;;39.10;1.00;;;;;;5080489;28;20431;-83
2022/05/15 13:21:38;;;;;;;6.87;1.40;;;39.40;1.00;;;;;;5081535;28;20441;-85
2022/05/15 13:24:09;;;;;;;5.67;1.17;;;39.30;1.00;;;;;;5084663;28;20570;-84
2022/05/15 13:26:43;;;;;;;7.60;3.87;;;38.90;1.00;;;;;;5081302;28;20436;-84
2022/05/15 13:29:18;;;;;;;6.00;1.37;;;39.20;1.00;;;;;;5080536;28;20482;-85
2022/05/15 13:31:49;;;;;;;6.50;1.60;;;38.90;1.00;;;;;;5087583;28;20463;-83
2022/05/15 13:34:27;;;;;;;7.70;1.90;;;38.50;1.00;;;;;;5085654;28;20456;-82
2022/05/15 13:36:58;;;;;;;7.70;2.07;;;38.50;1.00;;;;;;5086633;28;20467;-85
2022/05/15 13:45:15;;;;;;;6.10;1.60;;;38.90;1.00;;;;;;5081544;28;20408;-86
2022/05/15 13:48:07;;;;;;;6.10;1.40;;;38.90;1.00;;;;;;5084109;28;21195;-85
2022/05/15 13:50:44;;;;;;;6.90;2.17;;;38.20;1.00;;;;;;5081265;28;20466;-87